Fure West — OZ2100 — position and weather

sailwx.info

Track history (hours):
 
Tides and Currents Weather Stations Pressure Air Temp Water Temp Dewpoint Dewpoint Depression Visibility Wind Speed Wind Dir Waves Ship Positions

Fure West

Last reported at 2016-May-03 22:11 UTC. Time now 2016-May-05 16:12 UTC.
Position N 56°13' E 011°19'.

Length 144 m; draft 5.5 m.

MMSI: 231775000.

Date/timePositionNaut miles runAvg speedWind from/ knotsBaromVisibWave heightAir tempDewpointWater temp
2016-May-03 22:11N 56°13' E 011°19'1515.5
2016-May-03 21:13N 56°26' E 011°32'1015.9
2016-May-03 20:33N 56°35' E 011°42'1514.7
2016-May-03 19:32N 56°50' E 011°49'1515.5
2016-May-03 18:33N 57°04' E 011°39'1615.6
2016-May-03 17:34N 57°19' E 011°29'1515.3
2016-May-03 16:33N 57°32' E 011°14'1615.6
2016-May-03 15:33N 57°43' E 010°53'9115.1
2016-May-03 09:32N 57°05' E 008°20'1615.9
2016-May-03 08:32N 56°51' E 008°05'9515.9
2016-May-03 02:33N 55°30' E 006°36'8016.0
2016-May-02 21:33N 54°22' E 005°24'1615.9
2016-May-02 20:33N 54°08' E 005°10'1615.9
2016-May-02 19:33N 53°53' E 005°01'1615.7
2016-May-02 18:33N 53°38' E 004°52'3215.8
2016-May-02 16:31N 53°09' E 004°30'1515.7
2016-May-02 15:33N 52°56' E 004°17'1615.8
2016-May-02 14:33N 52°43' E 004°03'1616.2
2016-May-02 13:33N 52°31' E 003°44'1514.9
2016-May-02 12:33N 52°17' E 003°34'3416.6
2016-May-02 10:32N 51°46' E 003°16'1313.5
2016-May-02 09:34N 51°34' E 003°25'1010.5
2016-May-02 08:33N 51°26' E 003°37'1212.1
2016-May-02 07:33N 51°22' E 003°55'8 8.5
2016-May-02 06:33N 51°23' E 004°09'9 9.2
2016-May-02 05:33N 51°17' E 004°20'0 0.3
2016-May-02 04:33N 51°16' E 004°20'0 0.2
2016-May-02 03:31N 51°16' E 004°21'0 0.0
2016-May-02 02:31N 51°16' E 004°21'0 0.0
2016-May-02 01:31N 51°16' E 004°21'0 0.0
2016-May-02 00:25N 51°16' E 004°21'0 0.0
2016-May-01 23:31N 51°16' E 004°21'0 0.0
2016-May-01 22:31N 51°16' E 004°21'0 0.0
2016-May-01 21:31N 51°16' E 004°21'0 0.0
2016-May-01 20:28N 51°16' E 004°21'0 0.0
2016-May-01 19:28N 51°16' E 004°21'0 0.0
2016-May-01 18:28N 51°16' E 004°21'0 0.0
2016-May-01 17:31N 51°16' E 004°21'0 0.0
2016-May-01 16:28N 51°16' E 004°21'0 0.0
2016-May-01 15:31N 51°16' E 004°21'0 0.0
2016-May-01 14:28N 51°16' E 004°21'0 0.0
2016-May-01 13:31N 51°16' E 004°21'0 0.0
2016-May-01 12:13N 51°16' E 004°21'0 0.0
2016-May-01 11:28N 51°16' E 004°21'0 0.0
2016-May-01 10:28N 51°16' E 004°21'0 0.0
2016-May-01 09:31N 51°16' E 004°21'0 0.0
2016-May-01 08:31N 51°16' E 004°21'0 0.0
2016-May-01 07:31N 51°16' E 004°21'0 0.0
2016-May-01 06:34N 51°16' E 004°21'1 0.5
2016-May-01 05:33N 51°17' E 004°20'5 5.3
2016-May-01 04:33N 51°21' E 004°15'1110.7
2016-May-01 03:34N 51°26' E 003°60'1111.0
2016-May-01 02:34N 51°23' E 003°43'10 9.5
2016-May-01 01:33N 51°25' E 003°28'1212.3
2016-May-01 00:33N 51°24' E 003°08'8 7.9
2016-Apr-30 23:33N 51°32' E 003°05'16 1.4
2016-Apr-30 12:23N 51°46' E 003°17'0 0.0
2016-Apr-29 21:29N 51°46' E 003°18'0 0.0
2016-Apr-29 13:26N 51°46' E 003°18'0 0.0
2016-Apr-29 12:32N 51°46' E 003°18'0 0.1
2016-Apr-29 11:32N 51°46' E 003°18'0 0.0
2016-Apr-29 10:23N 51°46' E 003°18'83 8.5
2016-Apr-29 00:33N 52°58' E 002°11'1313.0
2016-Apr-28 23:34N 53°04' E 001°51'1313.4
2016-Apr-28 22:34N 53°09' E 001°31'1813.1
2016-Apr-28 21:11N 53°22' E 001°09'812.1
2016-Apr-28 20:31N 53°29' E 001°02'1612.4
2016-Apr-28 19:15N 53°35' E 000°38'912.3
2016-Apr-28 18:33N 53°39' E 000°25'10 9.5
2016-Apr-28 17:33N 53°33' E 000°11'10 9.5
2016-Apr-28 16:33N 53°37' W 000°03'6 5.7
2016-Apr-28 15:33N 53°39' W 000°12'0 0.0
2016-Apr-28 14:31N 53°39' W 000°12'0 0.0
2016-Apr-28 13:34N 53°39' W 000°12'0 0.0
2016-Apr-28 12:33N 53°39' W 000°12'0 0.0
2016-Apr-28 06:24N 53°39' W 000°12'0 0.0
2016-Apr-27 15:21N 53°39' W 000°12'1 0.8
2016-Apr-27 14:34N 53°38' W 000°11'5 5.0
2016-Apr-27 13:33N 53°37' W 000°03'9 8.7
2016-Apr-27 12:34N 53°33' E 000°10'10 9.9
2016-Apr-27 11:33N 53°36' E 000°26'0 0.1
2016-Apr-27 08:09N 53°36' E 000°26'0 0.0
2016-Apr-27 04:29N 53°36' E 000°26'0 0.0
2016-Apr-27 03:32N 53°36' E 000°26'0 0.1
2016-Apr-27 02:26N 53°36' E 000°26'0 0.2
2016-Apr-27 01:22N 53°36' E 000°26'0 0.1
2016-Apr-27 00:30N 53°36' E 000°26'0 0.1
2016-Apr-26 23:24N 53°36' E 000°26'0 0.0
2016-Apr-26 22:12N 53°36' E 000°26'0 0.0
2016-Apr-26 21:24N 53°36' E 000°26'0 0.0
2016-Apr-26 20:09N 53°36' E 000°26'0 0.0
2016-Apr-26 18:30N 53°36' E 000°26'0 0.0
2016-Apr-26 17:33N 53°36' E 000°26'0 0.0
2016-Apr-26 16:15N 53°36' E 000°26'0 0.1
2016-Apr-26 15:33N 53°36' E 000°26'0 0.0
2016-Apr-26 14:15N 53°36' E 000°26'0 0.2
2016-Apr-26 13:33N 53°36' E 000°26'0 0.0
2016-Apr-26 12:33N 53°36' E 000°26'0 0.1
2016-Apr-26 11:31N 53°36' E 000°26'7 6.9
2016-Apr-26 10:33N 53°42' E 000°31'1 0.7
2016-Apr-26 09:28N 53°42' E 000°30'1 0.8
2016-Apr-26 08:17N 53°41' E 000°29'0 0.5
2016-Apr-26 07:21N 53°41' E 000°30'1 0.6
2016-Apr-26 06:30N 53°41' E 000°30'0 0.3
2016-Apr-26 05:33N 53°40' E 000°30'0 0.2
2016-Apr-26 04:30N 53°41' E 000°30'0 0.3
2016-Apr-26 03:24N 53°41' E 000°30'0 0.4
2016-Apr-26 02:33N 53°41' E 000°30'4 4.4
2016-Apr-26 01:33N 53°45' E 000°32'3 1.1
2016-Apr-25 23:15N 53°43' E 000°34'3 2.1
2016-Apr-25 21:32N 53°41' E 000°30'2 1.6
2016-Apr-25 20:33N 53°40' E 000°27'2 1.6
2016-Apr-25 19:32N 53°39' E 000°26'3 3.3
2016-Apr-25 18:33N 53°36' E 000°24'0 0.1
2016-Apr-25 16:31N 53°36' E 000°24'0 0.0
2016-Apr-25 15:04N 53°36' E 000°24'0 0.0
2016-Apr-25 14:31N 53°36' E 000°24'0 0.1
2016-Apr-25 13:07N 53°36' E 000°24'0 0.2
2016-Apr-25 12:28N 53°36' E 000°23'0 0.0
2016-Apr-25 11:25N 53°36' E 000°24'0 0.0
2016-Apr-25 10:19N 53°36' E 000°24'0 0.2
2016-Apr-25 09:19N 53°36' E 000°24'0 0.0
2016-Apr-25 07:25N 53°36' E 000°24'0 0.0
2016-Apr-25 06:31N 53°36' E 000°24'0 0.0
2016-Apr-25 05:31N 53°36' E 000°24'0 0.0
2016-Apr-25 04:31N 53°36' E 000°24'0 0.1
2016-Apr-25 03:19N 53°36' E 000°24'0 0.1
2016-Apr-25 02:31N 53°36' E 000°24'0 0.1
2016-Apr-25 01:16N 53°36' E 000°24'0 0.0
2016-Apr-25 00:31N 53°36' E 000°24'0 0.0
2016-Apr-24 23:31N 53°36' E 000°23'0 0.0
2016-Apr-24 22:10N 53°36' E 000°24'0 0.0
2016-Apr-24 21:31N 53°36' E 000°24'0 0.2
2016-Apr-24 20:27N 53°36' E 000°24'0 0.0
2016-Apr-24 19:16N 53°36' E 000°24'0 0.0
2016-Apr-24 17:28N 53°36' E 000°24'0 0.0
2016-Apr-24 15:33N 53°36' E 000°24'0 0.0
2016-Apr-24 14:33N 53°36' E 000°24'0 0.0
2016-Apr-24 13:25N 53°36' E 000°24'0 0.2
2016-Apr-24 12:32N 53°36' E 000°23'0 0.0
2016-Apr-24 11:29N 53°36' E 000°23'0 0.0
2016-Apr-24 10:32N 53°36' E 000°23'0 0.2
2016-Apr-24 09:32N 53°36' E 000°24'0 0.1
2016-Apr-24 08:20N 53°36' E 000°24'0 0.1
2016-Apr-24 07:32N 53°36' E 000°24'0 0.0
2016-Apr-24 06:20N 53°36' E 000°24'0 0.0
2016-Apr-24 05:20N 53°36' E 000°24'0 0.0
2016-Apr-24 04:23N 53°36' E 000°24'0 0.0
2016-Apr-24 03:11N 53°36' E 000°24'0 0.0
2016-Apr-24 02:11N 53°36' E 000°24'0 0.0
2016-Apr-24 01:26N 53°36' E 000°24'0 0.2
2016-Apr-24 00:26N 53°36' E 000°23'0 0.0
2016-Apr-23 23:26N 53°36' E 000°23'0 0.0
2016-Apr-23 22:29N 53°36' E 000°23'  
Track history (hours):
 
Tides and Currents Weather Stations Pressure Air Temp Water Temp Dewpoint Dewpoint Depression Visibility Wind Speed Wind Dir Waves Ship Positions

Fure West

Last reported at 2016-May-03 22:11 UTC. Time now 2016-May-05 16:12 UTC.
Position N 56°13' E 011°19'.

Length 144 m; draft 5.5 m.

MMSI: 231775000.

Date/timePositionNaut miles runAvg speedWind from/ knotsBaromVisibWave heightAir tempDewpointWater temp
2016-May-03 22:11N 56°13' E 011°19'1515.5
2016-May-03 21:13N 56°26' E 011°32'1015.9
2016-May-03 20:33N 56°35' E 011°42'1514.7
2016-May-03 19:32N 56°50' E 011°49'1515.5
2016-May-03 18:33N 57°04' E 011°39'1615.6
2016-May-03 17:34N 57°19' E 011°29'1515.3
2016-May-03 16:33N 57°32' E 011°14'1615.6
2016-May-03 15:33N 57°43' E 010°53'9115.1
2016-May-03 09:32N 57°05' E 008°20'1615.9
2016-May-03 08:32N 56°51' E 008°05'9515.9
2016-May-03 02:33N 55°30' E 006°36'8016.0
2016-May-02 21:33N 54°22' E 005°24'1615.9
2016-May-02 20:33N 54°08' E 005°10'1615.9
2016-May-02 19:33N 53°53' E 005°01'1615.7
2016-May-02 18:33N 53°38' E 004°52'3215.8
2016-May-02 16:31N 53°09' E 004°30'1515.7
2016-May-02 15:33N 52°56' E 004°17'1615.8
2016-May-02 14:33N 52°43' E 004°03'1616.2
2016-May-02 13:33N 52°31' E 003°44'1514.9
2016-May-02 12:33N 52°17' E 003°34'3416.6
2016-May-02 10:32N 51°46' E 003°16'1313.5
2016-May-02 09:34N 51°34' E 003°25'1010.5
2016-May-02 08:33N 51°26' E 003°37'1212.1
2016-May-02 07:33N 51°22' E 003°55'8 8.5
2016-May-02 06:33N 51°23' E 004°09'9 9.2
2016-May-02 05:33N 51°17' E 004°20'0 0.3
2016-May-02 04:33N 51°16' E 004°20'0 0.2
2016-May-02 03:31N 51°16' E 004°21'0 0.0
2016-May-02 02:31N 51°16' E 004°21'0 0.0
2016-May-02 01:31N 51°16' E 004°21'0 0.0
2016-May-02 00:25N 51°16' E 004°21'0 0.0
2016-May-01 23:31N 51°16' E 004°21'0 0.0
2016-May-01 22:31N 51°16' E 004°21'0 0.0
2016-May-01 21:31N 51°16' E 004°21'0 0.0
2016-May-01 20:28N 51°16' E 004°21'0 0.0
2016-May-01 19:28N 51°16' E 004°21'0 0.0
2016-May-01 18:28N 51°16' E 004°21'0 0.0
2016-May-01 17:31N 51°16' E 004°21'0 0.0
2016-May-01 16:28N 51°16' E 004°21'0 0.0
2016-May-01 15:31N 51°16' E 004°21'0 0.0
2016-May-01 14:28N 51°16' E 004°21'0 0.0
2016-May-01 13:31N 51°16' E 004°21'0 0.0
2016-May-01 12:13N 51°16' E 004°21'0 0.0
2016-May-01 11:28N 51°16' E 004°21'0 0.0
2016-May-01 10:28N 51°16' E 004°21'0 0.0
2016-May-01 09:31N 51°16' E 004°21'0 0.0
2016-May-01 08:31N 51°16' E 004°21'0 0.0
2016-May-01 07:31N 51°16' E 004°21'0 0.0
2016-May-01 06:34N 51°16' E 004°21'1 0.5
2016-May-01 05:33N 51°17' E 004°20'5 5.3
2016-May-01 04:33N 51°21' E 004°15'1110.7
2016-May-01 03:34N 51°26' E 003°60'1111.0
2016-May-01 02:34N 51°23' E 003°43'10 9.5
2016-May-01 01:33N 51°25' E 003°28'1212.3
2016-May-01 00:33N 51°24' E 003°08'8 7.9
2016-Apr-30 23:33N 51°32' E 003°05'16 1.4
2016-Apr-30 12:23N 51°46' E 003°17'0 0.0
2016-Apr-29 21:29N 51°46' E 003°18'0 0.0
2016-Apr-29 13:26N 51°46' E 003°18'0 0.0
2016-Apr-29 12:32N 51°46' E 003°18'0 0.1
2016-Apr-29 11:32N 51°46' E 003°18'0 0.0
2016-Apr-29 10:23N 51°46' E 003°18'83 8.5
2016-Apr-29 00:33N 52°58' E 002°11'1313.0
2016-Apr-28 23:34N 53°04' E 001°51'1313.4
2016-Apr-28 22:34N 53°09' E 001°31'1813.1
2016-Apr-28 21:11N 53°22' E 001°09'812.1
2016-Apr-28 20:31N 53°29' E 001°02'1612.4
2016-Apr-28 19:15N 53°35' E 000°38'912.3
2016-Apr-28 18:33N 53°39' E 000°25'10 9.5
2016-Apr-28 17:33N 53°33' E 000°11'10 9.5
2016-Apr-28 16:33N 53°37' W 000°03'6 5.7
2016-Apr-28 15:33N 53°39' W 000°12'0 0.0
2016-Apr-28 14:31N 53°39' W 000°12'0 0.0
2016-Apr-28 13:34N 53°39' W 000°12'0 0.0
2016-Apr-28 12:33N 53°39' W 000°12'0 0.0
2016-Apr-28 06:24N 53°39' W 000°12'0 0.0
2016-Apr-27 15:21N 53°39' W 000°12'1 0.8
2016-Apr-27 14:34N 53°38' W 000°11'5 5.0
2016-Apr-27 13:33N 53°37' W 000°03'9 8.7
2016-Apr-27 12:34N 53°33' E 000°10'10 9.9
2016-Apr-27 11:33N 53°36' E 000°26'0 0.1
2016-Apr-27 08:09N 53°36' E 000°26'0 0.0
2016-Apr-27 04:29N 53°36' E 000°26'0 0.0
2016-Apr-27 03:32N 53°36' E 000°26'0 0.1
2016-Apr-27 02:26N 53°36' E 000°26'0 0.2
2016-Apr-27 01:22N 53°36' E 000°26'0 0.1
2016-Apr-27 00:30N 53°36' E 000°26'0 0.1
2016-Apr-26 23:24N 53°36' E 000°26'0 0.0
2016-Apr-26 22:12N 53°36' E 000°26'0 0.0
2016-Apr-26 21:24N 53°36' E 000°26'0 0.0
2016-Apr-26 20:09N 53°36' E 000°26'0 0.0
2016-Apr-26 18:30N 53°36' E 000°26'0 0.0
2016-Apr-26 17:33N 53°36' E 000°26'0 0.0
2016-Apr-26 16:15N 53°36' E 000°26'0 0.1
2016-Apr-26 15:33N 53°36' E 000°26'0 0.0
2016-Apr-26 14:15N 53°36' E 000°26'0 0.2
2016-Apr-26 13:33N 53°36' E 000°26'0 0.0
2016-Apr-26 12:33N 53°36' E 000°26'0 0.1
2016-Apr-26 11:31N 53°36' E 000°26'7 6.9
2016-Apr-26 10:33N 53°42' E 000°31'1 0.7
2016-Apr-26 09:28N 53°42' E 000°30'1 0.8
2016-Apr-26 08:17N 53°41' E 000°29'0 0.5
2016-Apr-26 07:21N 53°41' E 000°30'1 0.6
2016-Apr-26 06:30N 53°41' E 000°30'0 0.3
2016-Apr-26 05:33N 53°40' E 000°30'0 0.2
2016-Apr-26 04:30N 53°41' E 000°30'0 0.3
2016-Apr-26 03:24N 53°41' E 000°30'0 0.4
2016-Apr-26 02:33N 53°41' E 000°30'4 4.4
2016-Apr-26 01:33N 53°45' E 000°32'3 1.1
2016-Apr-25 23:15N 53°43' E 000°34'3 2.1
2016-Apr-25 21:32N 53°41' E 000°30'2 1.6
2016-Apr-25 20:33N 53°40' E 000°27'2 1.6
2016-Apr-25 19:32N 53°39' E 000°26'3 3.3
2016-Apr-25 18:33N 53°36' E 000°24'0 0.1
2016-Apr-25 16:31N 53°36' E 000°24'0 0.0
2016-Apr-25 15:04N 53°36' E 000°24'0 0.0
2016-Apr-25 14:31N 53°36' E 000°24'0 0.1
2016-Apr-25 13:07N 53°36' E 000°24'0 0.2
2016-Apr-25 12:28N 53°36' E 000°23'0 0.0
2016-Apr-25 11:25N 53°36' E 000°24'0 0.0
2016-Apr-25 10:19N 53°36' E 000°24'0 0.2
2016-Apr-25 09:19N 53°36' E 000°24'0 0.0
2016-Apr-25 07:25N 53°36' E 000°24'0 0.0
2016-Apr-25 06:31N 53°36' E 000°24'0 0.0
2016-Apr-25 05:31N 53°36' E 000°24'0 0.0
2016-Apr-25 04:31N 53°36' E 000°24'0 0.1
2016-Apr-25 03:19N 53°36' E 000°24'0 0.1
2016-Apr-25 02:31N 53°36' E 000°24'0 0.1
2016-Apr-25 01:16N 53°36' E 000°24'0 0.0
2016-Apr-25 00:31N 53°36' E 000°24'0 0.0
2016-Apr-24 23:31N 53°36' E 000°23'0 0.0
2016-Apr-24 22:10N 53°36' E 000°24'0 0.0
2016-Apr-24 21:31N 53°36' E 000°24'0 0.2
2016-Apr-24 20:27N 53°36' E 000°24'0 0.0
2016-Apr-24 19:16N 53°36' E 000°24'0 0.0
2016-Apr-24 17:28N 53°36' E 000°24'0 0.0
2016-Apr-24 15:33N 53°36' E 000°24'0 0.0
2016-Apr-24 14:33N 53°36' E 000°24'0 0.0
2016-Apr-24 13:25N 53°36' E 000°24'0 0.2
2016-Apr-24 12:32N 53°36' E 000°23'0 0.0
2016-Apr-24 11:29N 53°36' E 000°23'0 0.0
2016-Apr-24 10:32N 53°36' E 000°23'0 0.2
2016-Apr-24 09:32N 53°36' E 000°24'0 0.1
2016-Apr-24 08:20N 53°36' E 000°24'0 0.1
2016-Apr-24 07:32N 53°36' E 000°24'0 0.0
2016-Apr-24 06:20N 53°36' E 000°24'0 0.0
2016-Apr-24 05:20N 53°36' E 000°24'0 0.0
2016-Apr-24 04:23N 53°36' E 000°24'0 0.0
2016-Apr-24 03:11N 53°36' E 000°24'0 0.0
2016-Apr-24 02:11N 53°36' E 000°24'0 0.0
2016-Apr-24 01:26N 53°36' E 000°24'0 0.2
2016-Apr-24 00:26N 53°36' E 000°23'0 0.0
2016-Apr-23 23:26N 53°36' E 000°23'0 0.0
2016-Apr-23 22:29N 53°36' E 000°23'  

Dump ship's entire track history